sensor_id;sensor_type;location;lat;lon;timestamp;temperature;humidity
44247;DHT22;29922;0.000;0.000;2022-09-03T00:03:01;18.90;57.50
44247;DHT22;29922;0.000;0.000;2022-09-03T00:08:29;19.00;57.50
44247;DHT22;29922;0.000;0.000;2022-09-03T00:13:57;19.00;57.50
44247;DHT22;29922;0.000;0.000;2022-09-03T00:19:25;18.90;57.50
44247;DHT22;29922;0.000;0.000;2022-09-03T00:24:48;18.90;57.50
44247;DHT22;29922;0.000;0.000;2022-09-03T00:30:11;18.90;57.60
44247;DHT22;29922;0.000;0.000;2022-09-03T00:35:39;19.00;57.60
44247;DHT22;29922;0.000;0.000;2022-09-03T00:41:07;18.90;57.60
44247;DHT22;29922;0.000;0.000;2022-09-03T00:46:35;19.00;57.70
44247;DHT22;29922;0.000;0.000;2022-09-03T00:52:07;19.00;57.70
44247;DHT22;29922;0.000;0.000;2022-09-03T00:57:41;18.90;57.70
44247;DHT22;29922;0.000;0.000;2022-09-03T01:03:09;18.90;57.70
44247;DHT22;29922;0.000;0.000;2022-09-03T01:14:28;19.00;57.80
44247;DHT22;29922;0.000;0.000;2022-09-03T01:20:03;19.00;57.90
44247;DHT22;29922;0.000;0.000;2022-09-03T01:25:42;18.90;57.80
44247;DHT22;29922;0.000;0.000;2022-09-03T01:31:18;19.00;57.90
44247;DHT22;29922;0.000;0.000;2022-09-03T01:36:51;19.00;57.90
44247;DHT22;29922;0.000;0.000;2022-09-03T01:42:23;18.90;57.90
44247;DHT22;29922;0.000;0.000;2022-09-03T01:48:00;18.90;57.90
44247;DHT22;29922;0.000;0.000;2022-09-03T01:53:43;18.90;58.00
44247;DHT22;29922;0.000;0.000;2022-09-03T01:59:24;18.90;57.90
44247;DHT22;29922;0.000;0.000;2022-09-03T02:04:58;18.90;57.90
44247;DHT22;29922;0.000;0.000;2022-09-03T02:10:25;18.90;58.00
44247;DHT22;29922;0.000;0.000;2022-09-03T02:15:51;18.90;58.00
44247;DHT22;29922;0.000;0.000;2022-09-03T02:21:16;18.90;58.00
44247;DHT22;29922;0.000;0.000;2022-09-03T02:26:38;18.90;58.00
44247;DHT22;29922;0.000;0.000;2022-09-03T02:32:00;18.90;58.00
44247;DHT22;29922;0.000;0.000;2022-09-03T02:37:22;18.90;58.00
44247;DHT22;29922;0.000;0.000;2022-09-03T02:42:43;18.90;58.00
44247;DHT22;29922;0.000;0.000;2022-09-03T02:48:04;18.90;58.00
44247;DHT22;29922;0.000;0.000;2022-09-03T02:53:25;18.90;58.00
44247;DHT22;29922;0.000;0.000;2022-09-03T02:58:47;18.90;58.00
44247;DHT22;29922;0.000;0.000;2022-09-03T03:04:07;18.90;58.10
44247;DHT22;29922;0.000;0.000;2022-09-03T03:09:29;18.90;58.10
44247;DHT22;29922;0.000;0.000;2022-09-03T03:14:49;18.90;58.10
44247;DHT22;29922;0.000;0.000;2022-09-03T03:20:10;18.90;58.10
44247;DHT22;29922;0.000;0.000;2022-09-03T03:25:32;18.90;58.10
44247;DHT22;29922;0.000;0.000;2022-09-03T03:30:53;18.90;58.10
44247;DHT22;29922;0.000;0.000;2022-09-03T03:36:14;18.90;58.10
44247;DHT22;29922;0.000;0.000;2022-09-03T03:41:36;18.90;58.20
44247;DHT22;29922;0.000;0.000;2022-09-03T03:46:57;18.90;58.20
44247;DHT22;29922;0.000;0.000;2022-09-03T03:52:18;18.90;58.20
44247;DHT22;29922;0.000;0.000;2022-09-03T03:57:39;18.90;58.20
44247;DHT22;29922;0.000;0.000;2022-09-03T04:03:00;18.90;58.20
44247;DHT22;29922;0.000;0.000;2022-09-03T04:08:20;18.90;58.20
44247;DHT22;29922;0.000;0.000;2022-09-03T04:13:43;18.90;58.30
44247;DHT22;29922;0.000;0.000;2022-09-03T04:19:04;18.90;58.30
44247;DHT22;29922;0.000;0.000;2022-09-03T04:24:25;18.90;58.30
44247;DHT22;29922;0.000;0.000;2022-09-03T04:29:47;18.90;58.30
44247;DHT22;29922;0.000;0.000;2022-09-03T04:35:08;18.90;58.30
44247;DHT22;29922;0.000;0.000;2022-09-03T04:40:29;18.90;58.30
44247;DHT22;29922;0.000;0.000;2022-09-03T04:45:51;18.90;58.30
44247;DHT22;29922;0.000;0.000;2022-09-03T04:51:18;18.90;58.30
44247;DHT22;29922;0.000;0.000;2022-09-03T04:56:39;18.90;58.30
44247;DHT22;29922;0.000;0.000;2022-09-03T05:02:01;18.90;58.30
44247;DHT22;29922;0.000;0.000;2022-09-03T05:07:21;18.90;58.30
44247;DHT22;29922;0.000;0.000;2022-09-03T05:12:42;18.90;58.30
44247;DHT22;29922;0.000;0.000;2022-09-03T05:18:04;18.90;59.00
44247;DHT22;29922;0.000;0.000;2022-09-03T05:23:25;18.90;58.30
44247;DHT22;29922;0.000;0.000;2022-09-03T05:28:46;18.90;58.30
44247;DHT22;29922;0.000;0.000;2022-09-03T05:34:09;18.90;58.30
44247;DHT22;29922;0.000;0.000;2022-09-03T05:39:29;18.90;58.40
44247;DHT22;29922;0.000;0.000;2022-09-03T05:44:50;18.90;58.40
44247;DHT22;29922;0.000;0.000;2022-09-03T05:50:12;18.80;58.40
44247;DHT22;29922;0.000;0.000;2022-09-03T05:55:33;18.90;58.50
44247;DHT22;29922;0.000;0.000;2022-09-03T06:00:53;18.90;58.60
44247;DHT22;29922;0.000;0.000;2022-09-03T06:06:15;18.90;58.60
44247;DHT22;29922;0.000;0.000;2022-09-03T06:11:37;18.90;58.70
44247;DHT22;29922;0.000;0.000;2022-09-03T06:16:58;18.90;58.70
44247;DHT22;29922;0.000;0.000;2022-09-03T06:22:20;18.90;59.00
44247;DHT22;29922;0.000;0.000;2022-09-03T06:27:43;18.90;58.90
44247;DHT22;29922;0.000;0.000;2022-09-03T06:33:03;18.90;58.90
44247;DHT22;29922;0.000;0.000;2022-09-03T06:38:27;18.80;58.90
44247;DHT22;29922;0.000;0.000;2022-09-03T06:43:51;18.80;59.00
44247;DHT22;29922;0.000;0.000;2022-09-03T06:49:13;18.90;58.90
44247;DHT22;29922;0.000;0.000;2022-09-03T06:54:35;18.80;58.90
44247;DHT22;29922;0.000;0.000;2022-09-03T06:59:59;18.80;58.80
44247;DHT22;29922;0.000;0.000;2022-09-03T07:05:20;18.80;58.90
44247;DHT22;29922;0.000;0.000;2022-09-03T07:10:47;18.80;58.80
44247;DHT22;29922;0.000;0.000;2022-09-03T07:16:11;18.80;58.80
44247;DHT22;29922;0.000;0.000;2022-09-03T07:21:34;18.80;58.90
44247;DHT22;29922;0.000;0.000;2022-09-03T07:26:57;18.90;59.70
44247;DHT22;29922;0.000;0.000;2022-09-03T07:32:18;18.90;59.40
44247;DHT22;29922;0.000;0.000;2022-09-03T07:37:40;18.80;60.50
44247;DHT22;29922;0.000;0.000;2022-09-03T07:43:02;18.90;59.90
44247;DHT22;29922;0.000;0.000;2022-09-03T07:48:23;18.90;59.60
44247;DHT22;29922;0.000;0.000;2022-09-03T07:53:44;19.00;59.50
44247;DHT22;29922;0.000;0.000;2022-09-03T07:59:06;18.90;61.30
44247;DHT22;29922;0.000;0.000;2022-09-03T08:04:27;18.90;59.80
44247;DHT22;29922;0.000;0.000;2022-09-03T08:09:49;18.90;59.90
44247;DHT22;29922;0.000;0.000;2022-09-03T08:15:11;18.90;59.80
44247;DHT22;29922;0.000;0.000;2022-09-03T08:20:32;18.90;59.90
44247;DHT22;29922;0.000;0.000;2022-09-03T08:25:57;18.90;60.70
44247;DHT22;29922;0.000;0.000;2022-09-03T08:31:21;18.90;60.80
44247;DHT22;29922;0.000;0.000;2022-09-03T08:36:43;19.00;60.70
44247;DHT22;29922;0.000;0.000;2022-09-03T08:42:16;18.90;61.40
44247;DHT22;29922;0.000;0.000;2022-09-03T08:47:47;18.90;60.70
44247;DHT22;29922;0.000;0.000;2022-09-03T08:53:14;18.90;60.30
44247;DHT22;29922;0.000;0.000;2022-09-03T08:58:38;18.90;60.20
44247;DHT22;29922;0.000;0.000;2022-09-03T09:04:10;18.90;60.10
44247;DHT22;29922;0.000;0.000;2022-09-03T09:09:46;18.90;60.20
44247;DHT22;29922;0.000;0.000;2022-09-03T09:15:12;18.90;60.00
44247;DHT22;29922;0.000;0.000;2022-09-03T09:20:46;19.00;60.00
44247;DHT22;29922;0.000;0.000;2022-09-03T09:26:11;19.00;59.80
44247;DHT22;29922;0.000;0.000;2022-09-03T09:31:33;19.00;60.00
44247;DHT22;29922;0.000;0.000;2022-09-03T09:36:55;19.00;60.30
44247;DHT22;29922;0.000;0.000;2022-09-03T09:42:20;18.90;60.20
44247;DHT22;29922;0.000;0.000;2022-09-03T09:47:42;18.90;60.20
44247;DHT22;29922;0.000;0.000;2022-09-03T09:53:06;18.90;60.40
44247;DHT22;29922;0.000;0.000;2022-09-03T09:58:34;18.90;60.40
44247;DHT22;29922;0.000;0.000;2022-09-03T10:03:56;18.90;60.40
44247;DHT22;29922;0.000;0.000;2022-09-03T10:09:20;18.90;60.30
44247;DHT22;29922;0.000;0.000;2022-09-03T10:14:46;18.90;60.00
44247;DHT22;29922;0.000;0.000;2022-09-03T10:20:17;18.90;60.20
44247;DHT22;29922;0.000;0.000;2022-09-03T10:25:53;18.90;60.10
44247;DHT22;29922;0.000;0.000;2022-09-03T10:31:40;18.90;59.90
44247;DHT22;29922;0.000;0.000;2022-09-03T10:37:15;18.90;59.90
44247;DHT22;29922;0.000;0.000;2022-09-03T10:42:44;19.00;60.00
44247;DHT22;29922;0.000;0.000;2022-09-03T10:54:33;18.90;59.90
44247;DHT22;29922;0.000;0.000;2022-09-03T11:00:04;18.90;59.90
44247;DHT22;29922;0.000;0.000;2022-09-03T11:05:30;18.90;59.80
44247;DHT22;29922;0.000;0.000;2022-09-03T11:11:01;18.90;59.80
44247;DHT22;29922;0.000;0.000;2022-09-03T11:16:33;18.90;59.80
44247;DHT22;29922;0.000;0.000;2022-09-03T11:21:58;19.00;59.80
44247;DHT22;29922;0.000;0.000;2022-09-03T11:27:29;18.90;59.70
44247;DHT22;29922;0.000;0.000;2022-09-03T11:33:00;19.00;59.70
44247;DHT22;29922;0.000;0.000;2022-09-03T11:38:27;19.00;59.70
44247;DHT22;29922;0.000;0.000;2022-09-03T11:43:49;19.00;59.70
44247;DHT22;29922;0.000;0.000;2022-09-03T11:49:12;19.00;60.10
44247;DHT22;29922;0.000;0.000;2022-09-03T11:54:46;19.00;59.70
44247;DHT22;29922;0.000;0.000;2022-09-03T12:00:09;19.00;59.70
44247;DHT22;29922;0.000;0.000;2022-09-03T12:05:36;19.00;59.70
44247;DHT22;29922;0.000;0.000;2022-09-03T12:11:07;19.00;59.70
44247;DHT22;29922;0.000;0.000;2022-09-03T12:16:54;19.00;59.60
44247;DHT22;29922;0.000;0.000;2022-09-03T12:22:23;19.10;59.50
44247;DHT22;29922;0.000;0.000;2022-09-03T12:27:47;19.10;59.40
44247;DHT22;29922;0.000;0.000;2022-09-03T12:33:07;19.10;59.40
44247;DHT22;29922;0.000;0.000;2022-09-03T12:38:33;19.10;59.40
44247;DHT22;29922;0.000;0.000;2022-09-03T12:43:55;19.10;59.30
44247;DHT22;29922;0.000;0.000;2022-09-03T12:49:17;19.10;59.40
44247;DHT22;29922;0.000;0.000;2022-09-03T12:54:43;19.10;59.30
44247;DHT22;29922;0.000;0.000;2022-09-03T13:00:09;19.10;59.30
44247;DHT22;29922;0.000;0.000;2022-09-03T13:05:35;19.10;59.30
44247;DHT22;29922;0.000;0.000;2022-09-03T13:11:01;19.10;59.30
44247;DHT22;29922;0.000;0.000;2022-09-03T13:16:37;19.10;59.30
44247;DHT22;29922;0.000;0.000;2022-09-03T13:22:11;19.10;59.30
44247;DHT22;29922;0.000;0.000;2022-09-03T13:27:43;19.10;59.30
44247;DHT22;29922;0.000;0.000;2022-09-03T13:33:08;19.10;59.40
44247;DHT22;29922;0.000;0.000;2022-09-03T13:38:38;19.10;59.30
44247;DHT22;29922;0.000;0.000;2022-09-03T13:44:07;19.10;59.30
44247;DHT22;29922;0.000;0.000;2022-09-03T13:49:35;19.10;59.20
44247;DHT22;29922;0.000;0.000;2022-09-03T13:55:27;19.10;59.20
44247;DHT22;29922;0.000;0.000;2022-09-03T14:01:05;19.20;59.30
44247;DHT22;29922;0.000;0.000;2022-09-03T14:06:39;19.20;59.30
44247;DHT22;29922;0.000;0.000;2022-09-03T14:12:09;19.20;59.20
44247;DHT22;29922;0.000;0.000;2022-09-03T14:17:40;19.20;59.10
44247;DHT22;29922;0.000;0.000;2022-09-03T14:23:16;19.20;59.10
44247;DHT22;29922;0.000;0.000;2022-09-03T14:28:48;19.20;59.00
44247;DHT22;29922;0.000;0.000;2022-09-03T14:34:16;19.30;59.00
44247;DHT22;29922;0.000;0.000;2022-09-03T14:39:47;19.30;59.00
44247;DHT22;29922;0.000;0.000;2022-09-03T14:45:42;19.30;59.00
44247;DHT22;29922;0.000;0.000;2022-09-03T14:51:37;19.30;58.90
44247;DHT22;29922;0.000;0.000;2022-09-03T14:57:11;19.30;58.90
44247;DHT22;29922;0.000;0.000;2022-09-03T15:08:53;19.30;58.90
44247;DHT22;29922;0.000;0.000;2022-09-03T15:14:25;19.40;58.90
44247;DHT22;29922;0.000;0.000;2022-09-03T15:19:59;19.40;58.80
44247;DHT22;29922;0.000;0.000;2022-09-03T15:25:39;19.40;58.80
44247;DHT22;29922;0.000;0.000;2022-09-03T15:31:12;19.40;58.90
44247;DHT22;29922;0.000;0.000;2022-09-03T15:36:40;19.40;58.80
44247;DHT22;29922;0.000;0.000;2022-09-03T15:42:07;19.40;58.80
44247;DHT22;29922;0.000;0.000;2022-09-03T15:47:39;19.40;58.90
44247;DHT22;29922;0.000;0.000;2022-09-03T15:53:25;19.30;58.90
44247;DHT22;29922;0.000;0.000;2022-09-03T15:58:59;19.30;58.90
44247;DHT22;29922;0.000;0.000;2022-09-03T16:04:38;19.30;59.00
44247;DHT22;29922;0.000;0.000;2022-09-03T16:10:11;19.30;58.90
44247;DHT22;29922;0.000;0.000;2022-09-03T16:15:41;19.40;58.90
44247;DHT22;29922;0.000;0.000;2022-09-03T16:21:07;19.30;58.90
44247;DHT22;29922;0.000;0.000;2022-09-03T16:26:34;19.30;58.90
44247;DHT22;29922;0.000;0.000;2022-09-03T16:32:09;19.40;58.90
44247;DHT22;29922;0.000;0.000;2022-09-03T16:37:37;19.40;58.80
44247;DHT22;29922;0.000;0.000;2022-09-03T16:43:05;19.40;58.80
44247;DHT22;29922;0.000;0.000;2022-09-03T16:48:35;19.40;58.70
44247;DHT22;29922;0.000;0.000;2022-09-03T16:54:20;19.40;58.70
44247;DHT22;29922;0.000;0.000;2022-09-03T17:00:04;19.40;58.80
44247;DHT22;29922;0.000;0.000;2022-09-03T17:06:06;19.30;58.80
44247;DHT22;29922;0.000;0.000;2022-09-03T17:11:47;19.30;58.80
44247;DHT22;29922;0.000;0.000;2022-09-03T17:17:23;19.20;58.90
44247;DHT22;29922;0.000;0.000;2022-09-03T17:23:09;19.30;58.90
44247;DHT22;29922;0.000;0.000;2022-09-03T17:28:46;19.30;59.00
44247;DHT22;29922;0.000;0.000;2022-09-03T17:34:29;19.30;59.00
44247;DHT22;29922;0.000;0.000;2022-09-03T17:39:57;19.30;59.00
44247;DHT22;29922;0.000;0.000;2022-09-03T17:45:36;19.30;59.00
44247;DHT22;29922;0.000;0.000;2022-09-03T17:51:06;19.20;59.00
44247;DHT22;29922;0.000;0.000;2022-09-03T17:56:39;19.20;59.00
44247;DHT22;29922;0.000;0.000;2022-09-03T18:02:14;19.20;59.10
44247;DHT22;29922;0.000;0.000;2022-09-03T18:07:46;19.20;59.20
44247;DHT22;29922;0.000;0.000;2022-09-03T18:13:18;19.20;59.20
44247;DHT22;29922;0.000;0.000;2022-09-03T18:18:43;19.20;59.20
44247;DHT22;29922;0.000;0.000;2022-09-03T18:24:27;19.20;59.20
44247;DHT22;29922;0.000;0.000;2022-09-03T18:30:10;19.20;59.20
44247;DHT22;29922;0.000;0.000;2022-09-03T18:35:49;19.20;59.30
44247;DHT22;29922;0.000;0.000;2022-09-03T18:47:41;19.10;59.30
44247;DHT22;29922;0.000;0.000;2022-09-03T18:53:31;19.10;59.20
44247;DHT22;29922;0.000;0.000;2022-09-03T18:59:26;19.10;59.20
44247;DHT22;29922;0.000;0.000;2022-09-03T19:05:16;19.10;59.40
44247;DHT22;29922;0.000;0.000;2022-09-03T19:11:02;19.10;59.30
44247;DHT22;29922;0.000;0.000;2022-09-03T19:16:47;19.10;59.40
44247;DHT22;29922;0.000;0.000;2022-09-03T19:22:34;19.10;59.40
44247;DHT22;29922;0.000;0.000;2022-09-03T19:28:16;19.00;59.40
44247;DHT22;29922;0.000;0.000;2022-09-03T19:34:02;19.00;59.40
44247;DHT22;29922;0.000;0.000;2022-09-03T19:40:00;19.10;59.50
44247;DHT22;29922;0.000;0.000;2022-09-03T19:45:53;19.10;59.50
44247;DHT22;29922;0.000;0.000;2022-09-03T19:51:44;19.10;59.50
44247;DHT22;29922;0.000;0.000;2022-09-03T19:57:31;19.00;59.50
44247;DHT22;29922;0.000;0.000;2022-09-03T20:03:10;19.00;59.50
44247;DHT22;29922;0.000;0.000;2022-09-03T20:08:50;19.00;59.60
44247;DHT22;29922;0.000;0.000;2022-09-03T20:14:33;19.00;59.50
44247;DHT22;29922;0.000;0.000;2022-09-03T20:20:06;19.00;59.60
44247;DHT22;29922;0.000;0.000;2022-09-03T20:25:43;19.00;59.60
44247;DHT22;29922;0.000;0.000;2022-09-03T20:31:23;19.00;59.60
44247;DHT22;29922;0.000;0.000;2022-09-03T20:36:51;19.00;59.60
44247;DHT22;29922;0.000;0.000;2022-09-03T20:48:20;19.00;59.60
44247;DHT22;29922;0.000;0.000;2022-09-03T20:54:12;19.00;59.70
44247;DHT22;29922;0.000;0.000;2022-09-03T20:59:45;19.00;59.70
44247;DHT22;29922;0.000;0.000;2022-09-03T21:05:19;19.00;59.70
44247;DHT22;29922;0.000;0.000;2022-09-03T21:10:48;19.00;59.70
44247;DHT22;29922;0.000;0.000;2022-09-03T21:16:20;19.00;59.70
44247;DHT22;29922;0.000;0.000;2022-09-03T21:21:51;19.00;59.70
44247;DHT22;29922;0.000;0.000;2022-09-03T21:27:19;19.00;59.70
44247;DHT22;29922;0.000;0.000;2022-09-03T21:32:46;19.00;59.70
44247;DHT22;29922;0.000;0.000;2022-09-03T21:38:13;19.00;60.50
44247;DHT22;29922;0.000;0.000;2022-09-03T21:43:40;19.00;59.80
44247;DHT22;29922;0.000;0.000;2022-09-03T21:49:07;18.90;59.70
44247;DHT22;29922;0.000;0.000;2022-09-03T21:54:31;18.90;59.70
44247;DHT22;29922;0.000;0.000;2022-09-03T22:00:04;19.00;59.80
44247;DHT22;29922;0.000;0.000;2022-09-03T22:05:44;18.90;59.70
44247;DHT22;29922;0.000;0.000;2022-09-03T22:11:11;19.00;59.80
44247;DHT22;29922;0.000;0.000;2022-09-03T22:16:40;18.90;59.70
44247;DHT22;29922;0.000;0.000;2022-09-03T22:22:08;18.90;59.90
44247;DHT22;29922;0.000;0.000;2022-09-03T22:27:40;19.00;59.70
44247;DHT22;29922;0.000;0.000;2022-09-03T22:33:08;19.00;59.80
44247;DHT22;29922;0.000;0.000;2022-09-03T22:39:02;18.90;59.70
44247;DHT22;29922;0.000;0.000;2022-09-03T22:44:42;18.90;59.70
44247;DHT22;29922;0.000;0.000;2022-09-03T22:50:14;18.90;59.70
44247;DHT22;29922;0.000;0.000;2022-09-03T22:55:45;18.90;59.80
44247;DHT22;29922;0.000;0.000;2022-09-03T23:01:15;18.90;59.70
44247;DHT22;29922;0.000;0.000;2022-09-03T23:06:40;18.90;59.70
44247;DHT22;29922;0.000;0.000;2022-09-03T23:12:11;18.90;59.70
44247;DHT22;29922;0.000;0.000;2022-09-03T23:17:38;18.90;59.70
44247;DHT22;29922;0.000;0.000;2022-09-03T23:23:10;18.90;59.70
44247;DHT22;29922;0.000;0.000;2022-09-03T23:28:35;18.90;59.80
44247;DHT22;29922;0.000;0.000;2022-09-03T23:33:58;18.90;59.70
44247;DHT22;29922;0.000;0.000;2022-09-03T23:39:32;18.90;59.70
44247;DHT22;29922;0.000;0.000;2022-09-03T23:45:13;18.90;59.80
44247;DHT22;29922;0.000;0.000;2022-09-03T23:50:46;18.90;59.70
44247;DHT22;29922;0.000;0.000;2022-09-03T23:56:36;18.90;59.80
